sensor_id;sensor_type;location;lat;lon;timestamp;pressure;altitude;pressure_sealevel;temperature;humidity
9523;BME280;63165;43.016;25.784;2023-05-24T00:00:00;99804.53;;;14.80;89.54
9523;BME280;63165;43.016;25.784;2023-05-24T00:02:31;99792.56;;;14.71;89.92
9523;BME280;63165;43.016;25.784;2023-05-24T00:04:59;99778.78;;;14.65;89.85
9523;BME280;63165;43.016;25.784;2023-05-24T00:07:26;99796.97;;;14.71;89.47
9523;BME280;63165;43.016;25.784;2023-05-24T00:09:54;99790.25;;;14.62;89.70
9523;BME280;63165;43.016;25.784;2023-05-24T00:12:21;99775.66;;;14.53;89.25
9523;BME280;63165;43.016;25.784;2023-05-24T00:14:49;99805.31;;;14.59;89.58
9523;BME280;63165;43.016;25.784;2023-05-24T00:17:16;99770.09;;;14.37;89.88
9523;BME280;63165;43.016;25.784;2023-05-24T00:19:45;99780.47;;;14.42;89.08
9523;BME280;63165;43.016;25.784;2023-05-24T00:22:12;99795.50;;;14.39;88.96
9523;BME280;63165;43.016;25.784;2023-05-24T00:24:40;99760.75;;;14.29;89.02
9523;BME280;63165;43.016;25.784;2023-05-24T00:27:07;99798.00;;;14.42;89.13
9523;BME280;63165;43.016;25.784;2023-05-24T00:29:36;99793.88;;;14.34;89.86
9523;BME280;63165;43.016;25.784;2023-05-24T00:32:05;99782.88;;;14.23;89.98
9523;BME280;63165;43.016;25.784;2023-05-24T00:34:32;99786.91;;;14.33;90.26
9523;BME280;63165;43.016;25.784;2023-05-24T00:37:01;99785.47;;;14.25;90.18
9523;BME280;63165;43.016;25.784;2023-05-24T00:39:29;99758.22;;;14.02;90.14
9523;BME280;63165;43.016;25.784;2023-05-24T00:41:56;99763.09;;;14.13;90.63
9523;BME280;63165;43.016;25.784;2023-05-24T00:44:23;99775.34;;;14.14;91.45
9523;BME280;63165;43.016;25.784;2023-05-24T00:46:51;99792.84;;;14.15;91.95
9523;BME280;63165;43.016;25.784;2023-05-24T00:49:19;99780.47;;;14.17;91.83
9523;BME280;63165;43.016;25.784;2023-05-24T00:51:47;99765.25;;;14.02;92.04
9523;BME280;63165;43.016;25.784;2023-05-24T00:54:17;99792.00;;;14.14;92.44
9523;BME280;63165;43.016;25.784;2023-05-24T00:56:45;99771.50;;;13.99;92.51
9523;BME280;63165;43.016;25.784;2023-05-24T00:59:14;99772.22;;;14.03;92.76
9523;BME280;63165;43.016;25.784;2023-05-24T01:01:41;99773.25;;;13.98;93.71
9523;BME280;63165;43.016;25.784;2023-05-24T01:04:12;99779.16;;;14.05;93.79
9523;BME280;63165;43.016;25.784;2023-05-24T01:06:48;99783.72;;;14.00;93.41
9523;BME280;63165;43.016;25.784;2023-05-24T01:09:25;99771.69;;;13.93;93.23
9523;BME280;63165;43.016;25.784;2023-05-24T01:12:05;99776.94;;;13.93;93.08
9523;BME280;63165;43.016;25.784;2023-05-24T01:14:40;99781.41;;;13.91;92.99
9523;BME280;63165;43.016;25.784;2023-05-24T01:17:15;99772.75;;;13.87;92.39
9523;BME280;63165;43.016;25.784;2023-05-24T01:19:51;99789.41;;;13.88;92.40
9523;BME280;63165;43.016;25.784;2023-05-24T01:22:31;99794.56;;;13.91;92.57
9523;BME280;63165;43.016;25.784;2023-05-24T01:25:11;99798.09;;;13.90;92.47
9523;BME280;63165;43.016;25.784;2023-05-24T01:27:45;99785.84;;;13.89;92.09
9523;BME280;63165;43.016;25.784;2023-05-24T01:30:14;99771.56;;;13.71;92.25
9523;BME280;63165;43.016;25.784;2023-05-24T01:32:41;99771.81;;;13.63;92.49
9523;BME280;63165;43.016;25.784;2023-05-24T01:35:09;99810.69;;;13.80;92.38
9523;BME280;63165;43.016;25.784;2023-05-24T01:37:36;99802.03;;;13.76;92.59
9523;BME280;63165;43.016;25.784;2023-05-24T01:40:05;99810.00;;;13.75;92.31
9523;BME280;63165;43.016;25.784;2023-05-24T01:42:38;99785.72;;;13.67;92.43
9523;BME280;63165;43.016;25.784;2023-05-24T01:45:15;99800.56;;;13.69;92.77
9523;BME280;63165;43.016;25.784;2023-05-24T01:47:56;99790.34;;;13.60;92.64
9523;BME280;63165;43.016;25.784;2023-05-24T01:50:31;99802.38;;;13.67;92.16
9523;BME280;63165;43.016;25.784;2023-05-24T01:53:02;99733.31;;;13.07;91.94
9523;BME280;63165;43.016;25.784;2023-05-24T01:55:32;99785.47;;;13.48;92.00
9523;BME280;63165;43.016;25.784;2023-05-24T01:58:02;99792.16;;;13.58;92.10
9523;BME280;63165;43.016;25.784;2023-05-24T02:00:32;99792.16;;;13.58;92.11
9523;BME280;63165;43.016;25.784;2023-05-24T02:03:00;99813.25;;;13.56;91.98
9523;BME280;63165;43.016;25.784;2023-05-24T02:05:28;99803.84;;;13.49;91.75
9523;BME280;63165;43.016;25.784;2023-05-24T02:07:55;99803.03;;;13.47;92.16
9523;BME280;63165;43.016;25.784;2023-05-24T02:10:23;99789.50;;;13.31;92.20
9523;BME280;63165;43.016;25.784;2023-05-24T02:12:50;99807.53;;;13.44;91.80
9523;BME280;63165;43.016;25.784;2023-05-24T02:15:18;99809.22;;;13.45;91.98
9523;BME280;63165;43.016;25.784;2023-05-24T02:17:47;99806.66;;;13.43;91.72
9523;BME280;63165;43.016;25.784;2023-05-24T02:20:15;99812.81;;;13.42;91.70
9523;BME280;63165;43.016;25.784;2023-05-24T02:22:43;99812.81;;;13.42;92.13
9523;BME280;63165;43.016;25.784;2023-05-24T02:25:10;99813.78;;;13.39;92.11
9523;BME280;63165;43.016;25.784;2023-05-24T02:27:37;99813.97;;;13.33;91.81
9523;BME280;63165;43.016;25.784;2023-05-24T02:30:07;99801.19;;;13.21;92.22
9523;BME280;63165;43.016;25.784;2023-05-24T02:32:35;99799.44;;;13.21;91.77
9523;BME280;63165;43.016;25.784;2023-05-24T02:35:05;99815.16;;;13.23;92.20
9523;BME280;63165;43.016;25.784;2023-05-24T02:37:32;99803.06;;;13.17;92.44
9523;BME280;63165;43.016;25.784;2023-05-24T02:40:00;99796.22;;;13.12;92.41
9523;BME280;63165;43.016;25.784;2023-05-24T02:42:28;99824.00;;;13.20;92.30
9523;BME280;63165;43.016;25.784;2023-05-24T02:44:56;99787.78;;;13.02;91.99
9523;BME280;63165;43.016;25.784;2023-05-24T02:47:23;99793.84;;;13.04;92.24
9523;BME280;63165;43.016;25.784;2023-05-24T02:49:52;99771.63;;;12.86;92.54
9523;BME280;63165;43.016;25.784;2023-05-24T02:52:22;99832.28;;;13.07;92.76
9523;BME280;63165;43.016;25.784;2023-05-24T02:54:49;99814.66;;;13.10;93.10
9523;BME280;63165;43.016;25.784;2023-05-24T02:57:17;99814.69;;;13.09;92.88
9523;BME280;63165;43.016;25.784;2023-05-24T02:59:45;99783.50;;;12.98;93.05
9523;BME280;63165;43.016;25.784;2023-05-24T03:02:12;99803.19;;;13.13;92.74
9523;BME280;63165;43.016;25.784;2023-05-24T03:04:40;99815.34;;;13.17;92.38
9523;BME280;63165;43.016;25.784;2023-05-24T03:07:07;99823.09;;;13.20;92.67
9523;BME280;63165;43.016;25.784;2023-05-24T03:09:36;99814.47;;;13.16;92.39
9523;BME280;63165;43.016;25.784;2023-05-24T03:12:04;99802.66;;;13.01;92.37
9523;BME280;63165;43.016;25.784;2023-05-24T03:14:32;99814.81;;;13.06;93.01
9523;BME280;63165;43.016;25.784;2023-05-24T03:16:59;99804.94;;;12.84;93.44
9523;BME280;63165;43.016;25.784;2023-05-24T03:19:26;99813.03;;;13.06;93.29
9523;BME280;63165;43.016;25.784;2023-05-24T03:21:54;99803.50;;;13.04;93.56
9523;BME280;63165;43.016;25.784;2023-05-24T03:24:21;99813.94;;;13.05;93.43
9523;BME280;63165;43.016;25.784;2023-05-24T03:26:50;99810.81;;;12.92;93.44
9523;BME280;63165;43.016;25.784;2023-05-24T03:29:17;99823.47;;;13.09;93.63
9523;BME280;63165;43.016;25.784;2023-05-24T03:31:44;99815.75;;;13.03;93.92
9523;BME280;63165;43.016;25.784;2023-05-24T03:34:11;99831.47;;;13.05;94.04
9523;BME280;63165;43.016;25.784;2023-05-24T03:36:39;99845.28;;;13.11;94.52
9523;BME280;63165;43.016;25.784;2023-05-24T03:39:06;99847.03;;;13.11;95.01
9523;BME280;63165;43.016;25.784;2023-05-24T03:41:34;99848.97;;;13.06;95.26
9523;BME280;63165;43.016;25.784;2023-05-24T03:44:03;99832.16;;;13.11;95.97
9523;BME280;63165;43.016;25.784;2023-05-24T03:46:30;99834.59;;;13.17;95.66
9523;BME280;63165;43.016;25.784;2023-05-24T03:48:57;99825.97;;;13.12;95.84
9523;BME280;63165;43.016;25.784;2023-05-24T03:51:25;99834.31;;;13.27;95.71
9523;BME280;63165;43.016;25.784;2023-05-24T03:53:54;99824.63;;;13.27;95.69
9523;BME280;63165;43.016;25.784;2023-05-24T03:56:22;99827.94;;;13.35;96.21
9523;BME280;63165;43.016;25.784;2023-05-24T03:58:51;99819.22;;;13.33;96.57
9523;BME280;63165;43.016;25.784;2023-05-24T04:01:20;99814.44;;;13.46;97.28
9523;BME280;63165;43.016;25.784;2023-05-24T04:03:47;99811.75;;;13.48;97.36
9523;BME280;63165;43.016;25.784;2023-05-24T04:06:15;99827.09;;;13.62;97.90
9523;BME280;63165;43.016;25.784;2023-05-24T04:08:43;99820.97;;;13.61;98.33
9523;BME280;63165;43.016;25.784;2023-05-24T04:11:10;99801.34;;;13.71;98.92
9523;BME280;63165;43.016;25.784;2023-05-24T04:13:37;99798.59;;;13.74;100.00
9523;BME280;63165;43.016;25.784;2023-05-24T04:16:05;99830.31;;;13.96;100.00
9523;BME280;63165;43.016;25.784;2023-05-24T04:18:35;99809.91;;;14.03;100.00
9523;BME280;63165;43.016;25.784;2023-05-24T04:21:03;99836.25;;;14.27;100.00
9523;BME280;63165;43.016;25.784;2023-05-24T04:23:30;99828.22;;;14.31;100.00
9523;BME280;63165;43.016;25.784;2023-05-24T04:25:57;99790.56;;;14.29;100.00
9523;BME280;63165;43.016;25.784;2023-05-24T04:28:25;99824.63;;;14.59;100.00
9523;BME280;63165;43.016;25.784;2023-05-24T04:30:52;99844.13;;;14.77;100.00
9523;BME280;63165;43.016;25.784;2023-05-24T04:33:22;99816.16;;;14.74;100.00
9523;BME280;63165;43.016;25.784;2023-05-24T04:35:50;99839.97;;;14.95;100.00
9523;BME280;63165;43.016;25.784;2023-05-24T04:38:18;99848.25;;;15.08;100.00
9523;BME280;63165;43.016;25.784;2023-05-24T04:40:45;99839.38;;;15.10;100.00
9523;BME280;63165;43.016;25.784;2023-05-24T04:43:13;99844.78;;;15.29;99.12
9523;BME280;63165;43.016;25.784;2023-05-24T04:45:40;99834.91;;;15.34;98.52
9523;BME280;63165;43.016;25.784;2023-05-24T04:48:07;99831.72;;;15.48;98.19
9523;BME280;63165;43.016;25.784;2023-05-24T04:50:34;99824.31;;;15.36;97.11
9523;BME280;63165;43.016;25.784;2023-05-24T04:53:03;99844.88;;;15.70;96.34
9523;BME280;63165;43.016;25.784;2023-05-24T04:55:31;99839.22;;;15.81;95.61
9523;BME280;63165;43.016;25.784;2023-05-24T04:57:58;99843.38;;;15.87;95.26
9523;BME280;63165;43.016;25.784;2023-05-24T05:00:26;99825.38;;;15.97;95.49
9523;BME280;63165;43.016;25.784;2023-05-24T05:02:53;99821.88;;;15.96;95.27
9523;BME280;63165;43.016;25.784;2023-05-24T05:05:20;99815.81;;;16.15;94.71
9523;BME280;63165;43.016;25.784;2023-05-24T05:07:47;99829.50;;;16.43;93.87
9523;BME280;63165;43.016;25.784;2023-05-24T05:10:16;99786.16;;;16.28;93.09
9523;BME280;63165;43.016;25.784;2023-05-24T05:12:44;99833.91;;;16.63;91.92
9523;BME280;63165;43.016;25.784;2023-05-24T05:15:11;99806.97;;;16.55;92.23
9523;BME280;63165;43.016;25.784;2023-05-24T05:17:38;99841.34;;;16.74;93.33
9523;BME280;63165;43.016;25.784;2023-05-24T05:20:07;99826.59;;;16.89;92.66
9523;BME280;63165;43.016;25.784;2023-05-24T05:22:34;99862.16;;;17.20;91.81
9523;BME280;63165;43.016;25.784;2023-05-24T05:25:02;99842.50;;;17.25;91.32
9523;BME280;63165;43.016;25.784;2023-05-24T05:27:31;99848.66;;;17.45;89.63
9523;BME280;63165;43.016;25.784;2023-05-24T05:29:58;99854.53;;;17.50;88.91
9523;BME280;63165;43.016;25.784;2023-05-24T05:32:25;99775.94;;;17.17;88.17
9523;BME280;63165;43.016;25.784;2023-05-24T05:34:53;99847.47;;;17.87;88.01
9523;BME280;63165;43.016;25.784;2023-05-24T05:37:20;99809.44;;;17.71;87.69
9523;BME280;63165;43.016;25.784;2023-05-24T05:39:47;99762.69;;;17.54;86.85
9523;BME280;63165;43.016;25.784;2023-05-24T05:42:14;99851.59;;;18.10;85.09
9523;BME280;63165;43.016;25.784;2023-05-24T05:44:43;99792.00;;;18.03;83.45
9523;BME280;63165;43.016;25.784;2023-05-24T05:47:10;99832.13;;;18.29;81.91
9523;BME280;63165;43.016;25.784;2023-05-24T05:49:38;99851.66;;;18.61;80.83
9523;BME280;63165;43.016;25.784;2023-05-24T05:52:05;99856.50;;;18.86;79.53
9523;BME280;63165;43.016;25.784;2023-05-24T05:54:33;99791.69;;;18.58;78.18
9523;BME280;63165;43.016;25.784;2023-05-24T05:57:00;99881.31;;;19.17;77.48
9523;BME280;63165;43.016;25.784;2023-05-24T05:59:28;99850.19;;;19.20;77.06
9523;BME280;63165;43.016;25.784;2023-05-24T06:01:59;99795.94;;;18.94;76.63
9523;BME280;63165;43.016;25.784;2023-05-24T06:04:29;99860.38;;;19.44;76.58
9523;BME280;63165;43.016;25.784;2023-05-24T06:06:56;99821.88;;;19.37;75.82
9523;BME280;63165;43.016;25.784;2023-05-24T06:09:24;99860.69;;;19.70;74.75
9523;BME280;63165;43.016;25.784;2023-05-24T06:11:51;99851.69;;;19.88;74.63
9523;BME280;63165;43.016;25.784;2023-05-24T06:14:18;99855.06;;;20.06;74.56
9523;BME280;63165;43.016;25.784;2023-05-24T06:16:49;99810.50;;;20.11;73.00
9523;BME280;63165;43.016;25.784;2023-05-24T06:19:20;99802.22;;;20.16;72.73
9523;BME280;63165;43.016;25.784;2023-05-24T06:21:48;99840.31;;;20.45;71.83
9523;BME280;63165;43.016;25.784;2023-05-24T06:24:17;99876.91;;;20.85;71.13
9523;BME280;63165;43.016;25.784;2023-05-24T06:26:46;99838.94;;;20.68;71.23
9523;BME280;63165;43.016;25.784;2023-05-24T06:29:13;99850.81;;;20.91;71.25
9523;BME280;63165;43.016;25.784;2023-05-24T06:31:41;99814.25;;;20.81;70.49
9523;BME280;63165;43.016;25.784;2023-05-24T06:34:08;99833.78;;;21.08;69.66
9523;BME280;63165;43.016;25.784;2023-05-24T06:36:37;99870.50;;;21.45;68.63
9523;BME280;63165;43.016;25.784;2023-05-24T06:39:07;99865.59;;;21.66;69.43
9523;BME280;63165;43.016;25.784;2023-05-24T06:41:35;99860.94;;;21.82;69.55
9523;BME280;63165;43.016;25.784;2023-05-24T06:44:03;99810.53;;;21.66;67.75
9523;BME280;63165;43.016;25.784;2023-05-24T06:46:31;99847.25;;;22.01;66.63
9523;BME280;63165;43.016;25.784;2023-05-24T06:48:58;99839.88;;;22.05;66.37
9523;BME280;63165;43.016;25.784;2023-05-24T06:51:25;99815.72;;;22.08;65.99
9523;BME280;63165;43.016;25.784;2023-05-24T06:53:54;99859.47;;;22.57;65.52
9523;BME280;63165;43.016;25.784;2023-05-24T06:56:21;99862.78;;;22.73;65.20
9523;BME280;63165;43.016;25.784;2023-05-24T06:58:49;99844.97;;;22.74;64.62
9523;BME280;63165;43.016;25.784;2023-05-24T07:01:17;99854.84;;;22.97;63.71
9523;BME280;63165;43.016;25.784;2023-05-24T07:03:44;99864.34;;;23.14;62.67
9523;BME280;63165;43.016;25.784;2023-05-24T07:06:13;99823.91;;;23.08;62.17
9523;BME280;63165;43.016;25.784;2023-05-24T07:11:39;99813.59;;;23.27;61.24
9523;BME280;63165;43.016;25.784;2023-05-24T07:14:06;99846.94;;;23.70;61.54
9523;BME280;63165;43.016;25.784;2023-05-24T07:16:34;99835.59;;;23.79;61.61
9523;BME280;63165;43.016;25.784;2023-05-24T07:19:01;99846.97;;;24.05;61.35
9523;BME280;63165;43.016;25.784;2023-05-24T07:21:28;99829.41;;;24.14;60.67
9523;BME280;63165;43.016;25.784;2023-05-24T07:23:56;99855.97;;;24.51;60.82
9523;BME280;63165;43.016;25.784;2023-05-24T07:26:23;99857.69;;;24.63;59.68
9523;BME280;63165;43.016;25.784;2023-05-24T07:28:52;99849.09;;;24.82;59.28
9523;BME280;63165;43.016;25.784;2023-05-24T07:31:19;99857.84;;;24.84;59.27
9523;BME280;63165;43.016;25.784;2023-05-24T07:33:47;99826.78;;;24.93;59.34
9523;BME280;63165;43.016;25.784;2023-05-24T07:36:14;99850.13;;;25.13;59.76
9523;BME280;63165;43.016;25.784;2023-05-24T07:38:41;99822.88;;;25.19;58.75
9523;BME280;63165;43.016;25.784;2023-05-24T07:41:09;99821.28;;;25.28;58.10
9523;BME280;63165;43.016;25.784;2023-05-24T07:43:36;99845.56;;;25.59;57.34
9523;BME280;63165;43.016;25.784;2023-05-24T07:46:05;99800.50;;;25.53;56.33
9523;BME280;63165;43.016;25.784;2023-05-24T07:48:34;99860.41;;;25.95;56.15
9523;BME280;63165;43.016;25.784;2023-05-24T07:51:02;99819.19;;;25.75;55.69
9523;BME280;63165;43.016;25.784;2023-05-24T07:53:29;99864.22;;;26.35;54.95
9523;BME280;63165;43.016;25.784;2023-05-24T07:55:56;99867.41;;;26.50;55.64
9523;BME280;63165;43.016;25.784;2023-05-24T07:58:24;99869.00;;;26.52;55.13
9523;BME280;63165;43.016;25.784;2023-05-24T08:00:52;99809.59;;;26.36;54.77
9523;BME280;63165;43.016;25.784;2023-05-24T08:03:21;99867.78;;;26.87;54.44
9523;BME280;63165;43.016;25.784;2023-05-24T08:05:50;99854.09;;;26.90;54.58
9523;BME280;63165;43.016;25.784;2023-05-24T08:08:18;99849.47;;;27.02;55.37
9523;BME280;63165;43.016;25.784;2023-05-24T08:10:45;99832.81;;;27.08;54.21
9523;BME280;63165;43.016;25.784;2023-05-24T08:13:12;99864.69;;;27.33;53.36
9523;BME280;63165;43.016;25.784;2023-05-24T08:15:40;99840.69;;;27.41;52.08
9523;BME280;63165;43.016;25.784;2023-05-24T08:18:07;99840.50;;;27.33;50.00
9523;BME280;63165;43.016;25.784;2023-05-24T08:20:37;99823.88;;;27.48;48.04
9523;BME280;63165;43.016;25.784;2023-05-24T08:23:05;99833.78;;;27.67;48.46
9523;BME280;63165;43.016;25.784;2023-05-24T08:25:32;99881.06;;;27.99;48.14
9523;BME280;63165;43.016;25.784;2023-05-24T08:28:00;99842.97;;;27.84;47.87
9523;BME280;63165;43.016;25.784;2023-05-24T08:30:28;99821.78;;;27.91;47.57
9523;BME280;63165;43.016;25.784;2023-05-24T08:32:55;99857.53;;;28.11;47.54
9523;BME280;63165;43.016;25.784;2023-05-24T08:35:23;99859.97;;;28.14;46.59
9523;BME280;63165;43.016;25.784;2023-05-24T08:37:51;99820.47;;;28.05;46.53
9523;BME280;63165;43.016;25.784;2023-05-24T08:40:19;99865.84;;;28.37;47.19
9523;BME280;63165;43.016;25.784;2023-05-24T08:42:49;99823.13;;;28.15;47.00
9523;BME280;63165;43.016;25.784;2023-05-24T08:45:17;99836.47;;;28.06;47.52
9523;BME280;63165;43.016;25.784;2023-05-24T08:47:45;99869.84;;;28.23;47.50
9523;BME280;63165;43.016;25.784;2023-05-24T08:50:13;99865.84;;;28.37;46.73
9523;BME280;63165;43.016;25.784;2023-05-24T08:52:41;99837.00;;;28.30;46.02
9523;BME280;63165;43.016;25.784;2023-05-24T08:55:11;99857.09;;;28.55;45.90
9523;BME280;63165;43.016;25.784;2023-05-24T08:57:38;99846.28;;;28.64;45.78
9523;BME280;63165;43.016;25.784;2023-05-24T09:00:10;99857.13;;;28.82;45.84
9523;BME280;63165;43.016;25.784;2023-05-24T09:02:39;99796.31;;;28.42;45.73
9523;BME280;63165;43.016;25.784;2023-05-24T09:05:09;99854.56;;;28.81;44.69
9523;BME280;63165;43.016;25.784;2023-05-24T09:07:37;99841.81;;;28.83;44.32
9523;BME280;63165;43.016;25.784;2023-05-24T09:10:05;99856.81;;;28.85;44.21
9523;BME280;63165;43.016;25.784;2023-05-24T09:12:36;99798.47;;;28.76;43.59
9523;BME280;63165;43.016;25.784;2023-05-24T09:15:05;99842.09;;;29.17;43.21
9523;BME280;63165;43.016;25.784;2023-05-24T09:17:37;99829.03;;;29.13;42.79
9523;BME280;63165;43.016;25.784;2023-05-24T09:20:06;99833.44;;;29.14;42.38
9523;BME280;63165;43.016;25.784;2023-05-24T09:22:35;99856.63;;;29.52;41.48
9523;BME280;63165;43.016;25.784;2023-05-24T09:25:05;99826.66;;;29.37;41.27
9523;BME280;63165;43.016;25.784;2023-05-24T09:27:35;99865.88;;;29.68;41.58
9523;BME280;63165;43.016;25.784;2023-05-24T09:30:07;99834.03;;;29.35;41.57
9523;BME280;63165;43.016;25.784;2023-05-24T09:32:35;99830.50;;;29.35;41.17
9523;BME280;63165;43.016;25.784;2023-05-24T09:35:11;99813.09;;;29.29;40.56
9523;BME280;63165;43.016;25.784;2023-05-24T09:37:38;99828.94;;;29.32;41.29
9523;BME280;63165;43.016;25.784;2023-05-24T09:40:16;99862.69;;;29.54;41.03
9523;BME280;63165;43.016;25.784;2023-05-24T09:42:46;99807.78;;;29.37;40.40
9523;BME280;63165;43.016;25.784;2023-05-24T09:45:16;99802.38;;;29.37;40.35
9523;BME280;63165;43.016;25.784;2023-05-24T09:47:43;99807.06;;;29.53;41.43
9523;BME280;63165;43.016;25.784;2023-05-24T09:50:12;99853.94;;;30.06;40.73
9523;BME280;63165;43.016;25.784;2023-05-24T09:52:41;99819.91;;;29.87;39.93
9523;BME280;63165;43.016;25.784;2023-05-24T09:55:12;99822.34;;;29.98;37.49
9523;BME280;63165;43.016;25.784;2023-05-24T09:57:40;99794.72;;;29.78;36.19
9523;BME280;63165;43.016;25.784;2023-05-24T10:00:10;99836.69;;;29.99;36.72
9523;BME280;63165;43.016;25.784;2023-05-24T10:02:42;99816.78;;;30.00;36.67
9523;BME280;63165;43.016;25.784;2023-05-24T10:05:10;99833.84;;;30.27;36.75
9523;BME280;63165;43.016;25.784;2023-05-24T10:07:37;99841.28;;;30.51;36.52
9523;BME280;63165;43.016;25.784;2023-05-24T10:10:06;99802.59;;;30.42;35.88
9523;BME280;63165;43.016;25.784;2023-05-24T10:12:35;99846.09;;;30.65;34.64
9523;BME280;63165;43.016;25.784;2023-05-24T10:15:10;99792.84;;;30.49;34.53
9523;BME280;63165;43.016;25.784;2023-05-24T10:17:37;99804.06;;;30.63;34.99
9523;BME280;63165;43.016;25.784;2023-05-24T10:20:05;99821.25;;;30.62;33.84
9523;BME280;63165;43.016;25.784;2023-05-24T10:22:38;99831.31;;;30.77;33.71
9523;BME280;63165;43.016;25.784;2023-05-24T10:25:07;99808.94;;;30.67;34.10
9523;BME280;63165;43.016;25.784;2023-05-24T10:27:39;99823.72;;;30.81;33.65
9523;BME280;63165;43.016;25.784;2023-05-24T10:30:13;99828.19;;;30.99;32.81
9523;BME280;63165;43.016;25.784;2023-05-24T10:32:44;99809.28;;;30.90;33.11
9523;BME280;63165;43.016;25.784;2023-05-24T10:35:12;99810.25;;;30.89;33.30
9523;BME280;63165;43.016;25.784;2023-05-24T10:37:41;99781.47;;;30.72;32.78
9523;BME280;63165;43.016;25.784;2023-05-24T10:40:16;99813.88;;;31.06;32.88
9523;BME280;63165;43.016;25.784;2023-05-24T10:42:45;99794.97;;;31.06;32.64
9523;BME280;63165;43.016;25.784;2023-05-24T10:45:33;99786.84;;;30.98;33.06
9523;BME280;63165;43.016;25.784;2023-05-24T10:50:50;99776.41;;;31.11;33.51
9523;BME280;63165;43.016;25.784;2023-05-24T10:53:18;99795.41;;;31.44;33.26
9523;BME280;63165;43.016;25.784;2023-05-24T10:55:54;99762.25;;;31.34;32.70
9523;BME280;63165;43.016;25.784;2023-05-24T10:58:26;99789.13;;;31.44;31.96
9523;BME280;63165;43.016;25.784;2023-05-24T11:00:56;99762.00;;;31.03;32.25
9523;BME280;63165;43.016;25.784;2023-05-24T11:03:24;99785.38;;;31.37;32.46
9523;BME280;63165;43.016;25.784;2023-05-24T11:05:52;99737.72;;;31.19;32.69
9523;BME280;63165;43.016;25.784;2023-05-24T11:08:23;99730.66;;;31.18;33.30
9523;BME280;63165;43.016;25.784;2023-05-24T11:11:02;99778.53;;;31.50;34.63
9523;BME280;63165;43.016;25.784;2023-05-24T11:13:30;99757.88;;;31.41;34.55
9523;BME280;63165;43.016;25.784;2023-05-24T11:16:01;99783.41;;;31.71;34.17
9523;BME280;63165;43.016;25.784;2023-05-24T11:18:28;99785.78;;;31.83;33.64
9523;BME280;63165;43.016;25.784;2023-05-24T11:20:58;99719.53;;;31.54;32.68
9523;BME280;63165;43.016;25.784;2023-05-24T11:23:27;99729.69;;;31.52;32.09
9523;BME280;63165;43.016;25.784;2023-05-24T11:25:55;99766.19;;;31.81;31.06
9523;BME280;63165;43.016;25.784;2023-05-24T11:28:24;99761.44;;;31.91;31.72
9523;BME280;63165;43.016;25.784;2023-05-24T11:30:51;99677.25;;;31.37;31.46
9523;BME280;63165;43.016;25.784;2023-05-24T11:33:22;99736.59;;;31.87;31.45
9523;BME280;63165;43.016;25.784;2023-05-24T11:35:53;99739.78;;;31.99;31.40
9523;BME280;63165;43.016;25.784;2023-05-24T11:38:21;99752.47;;;31.99;31.73
9523;BME280;63165;43.016;25.784;2023-05-24T11:40:49;99670.19;;;31.52;31.86
9523;BME280;63165;43.016;25.784;2023-05-24T11:43:18;99739.59;;;31.92;31.41
9523;BME280;63165;43.016;25.784;2023-05-24T11:45:48;99703.47;;;31.61;32.21
9523;BME280;63165;43.016;25.784;2023-05-24T11:48:18;99683.22;;;31.48;32.64
9523;BME280;63165;43.016;25.784;2023-05-24T11:50:48;99731.53;;;31.68;32.05
9523;BME280;63165;43.016;25.784;2023-05-24T11:53:18;99704.16;;;31.71;31.53
9523;BME280;63165;43.016;25.784;2023-05-24T11:55:47;99674.56;;;31.53;31.15
9523;BME280;63165;43.016;25.784;2023-05-24T11:58:22;99725.56;;;31.97;31.10
9523;BME280;63165;43.016;25.784;2023-05-24T12:00:50;99654.78;;;31.61;31.57
9523;BME280;63165;43.016;25.784;2023-05-24T12:03:18;99671.31;;;31.74;32.03
9523;BME280;63165;43.016;25.784;2023-05-24T12:05:58;99722.13;;;32.36;31.89
9523;BME280;63165;43.016;25.784;2023-05-24T12:08:27;99694.06;;;32.21;31.22
9523;BME280;63165;43.016;25.784;2023-05-24T12:10:56;99733.06;;;32.51;30.79
9523;BME280;63165;43.016;25.784;2023-05-24T12:13:25;99657.75;;;32.07;30.34
9523;BME280;63165;43.016;25.784;2023-05-24T12:15:55;99698.59;;;32.37;29.99
9523;BME280;63165;43.016;25.784;2023-05-24T12:18:26;99701.81;;;32.32;30.25
9523;BME280;63165;43.016;25.784;2023-05-24T12:21:17;99689.13;;;32.33;30.31
9523;BME280;63165;43.016;25.784;2023-05-24T12:23:52;99701.69;;;32.25;30.29
9523;BME280;63165;43.016;25.784;2023-05-24T12:26:21;99735.75;;;32.59;29.64
9523;BME280;63165;43.016;25.784;2023-05-24T12:28:59;99686.34;;;32.49;29.51
9523;BME280;63165;43.016;25.784;2023-05-24T12:31:30;99735.69;;;32.76;29.91
9523;BME280;63165;43.016;25.784;2023-05-24T12:34:06;99726.09;;;32.88;30.22
9523;BME280;63165;43.016;25.784;2023-05-24T12:37:44;99651.50;;;32.46;30.25
9523;BME280;63165;43.016;25.784;2023-05-24T12:43:24;99697.03;;;32.42;29.41
9523;BME280;63165;43.016;25.784;2023-05-24T12:45:56;99667.53;;;32.00;31.35
9523;BME280;63165;43.016;25.784;2023-05-24T12:48:30;99770.75;;;31.64;32.32
9523;BME280;63165;43.016;25.784;2023-05-24T12:51:06;99748.94;;;30.90;33.26
9523;BME280;63165;43.016;25.784;2023-05-24T12:53:54;99751.28;;;30.08;34.10
9523;BME280;63165;43.016;25.784;2023-05-24T12:56:27;99772.66;;;29.83;34.26
9523;BME280;63165;43.016;25.784;2023-05-24T12:59:06;99666.16;;;28.89;35.18
9523;BME280;63165;43.016;25.784;2023-05-24T13:01:41;99700.31;;;28.71;36.01
9523;BME280;63165;43.016;25.784;2023-05-24T13:04:19;99772.84;;;28.72;36.15
9523;BME280;63165;43.016;25.784;2023-05-24T13:06:47;99754.03;;;28.25;36.85
9523;BME280;63165;43.016;25.784;2023-05-24T13:09:19;99743.22;;;27.87;37.52
9523;BME280;63165;43.016;25.784;2023-05-24T13:11:47;99756.38;;;27.71;38.25
9523;BME280;63165;43.016;25.784;2023-05-24T13:14:15;99735.59;;;27.34;39.17
9523;BME280;63165;43.016;25.784;2023-05-24T13:16:43;99741.69;;;27.26;39.52
9523;BME280;63165;43.016;25.784;2023-05-24T13:19:10;99740.38;;;27.11;39.57